Time;durP1;ratioP1;P1;durP2;ratioP2;P2;SDS_P1;SDS_P2;PMS_P1;PMS_P2;Temp;Humidity;BMP_temperature;BMP_pressure;BME280_temperature;BME280_humidity;BME280_pressure;Samples;Min_cycle;Max_cycle;Signal;HPM_P1;HPM_P2
2022/01/16 00:04:06;;;;;;;13.30;8.68;;;;;;;;;;5038878;28;20557;-72
2022/01/16 00:06:34;;;;;;;14.10;8.10;;;;;;;;;;5044384;28;20074;-80
2022/01/16 00:09:00;;;;;;;12.45;7.25;;;;;;;;;;5045827;28;20056;-73
2022/01/16 00:11:27;;;;;;;11.18;7.45;;;;;;;;;;5041150;28;20059;-71
2022/01/16 00:13:54;;;;;;;13.48;7.03;;;;;;;;;;5040935;28;20063;-77
2022/01/16 00:16:20;;;;;;;12.88;7.70;;;;;;;;;;5043156;28;20163;-80
2022/01/16 00:18:49;;;;;;;10.63;6.68;;;;;;;;;;5044249;28;20064;-74
2022/01/16 00:21:39;;;;;;;12.63;6.78;;;;;;;;;;5043183;28;20111;-75
2022/01/16 00:24:07;;;;;;;14.05;7.55;;;;;;;;;;5044677;28;20045;-71
2022/01/16 00:26:35;;;;;;;12.15;6.65;;;;;;;;;;5044130;28;20063;-74
2022/01/16 00:29:03;;;;;;;8.48;6.50;;;;;;;;;;5043168;28;20052;-71
2022/01/16 00:31:29;;;;;;;13.85;6.40;;;;;;;;;;5039771;28;20129;-72
2022/01/16 00:33:56;;;;;;;11.95;6.82;;;;;;;;;;5041760;28;20052;-74
2022/01/16 00:36:22;;;;;;;9.00;6.07;;;;;;;;;;5042584;28;20746;-75
2022/01/16 00:38:50;;;;;;;8.65;5.50;;;;;;;;;;5044059;28;20395;-80
2022/01/16 00:41:20;;;;;;;9.52;5.60;;;;;;;;;;5024514;28;20580;-76
2022/01/16 00:43:48;;;;;;;8.27;5.28;;;;;;;;;;5037442;28;20082;-74
2022/01/16 00:46:14;;;;;;;8.63;5.13;;;;;;;;;;5043247;28;20534;-65
2022/01/16 00:48:41;;;;;;;11.32;5.68;;;;;;;;;;5044181;28;20067;-68
2022/01/16 00:51:08;;;;;;;11.45;5.70;;;;;;;;;;5042444;28;20055;-79
2022/01/16 00:53:34;;;;;;;9.18;4.50;;;;;;;;;;5022838;28;20083;-75
2022/01/16 00:56:00;;;;;;;7.68;4.85;;;;;;;;;;5041846;28;20048;-77
2022/01/16 00:58:26;;;;;;;9.15;4.88;;;;;;;;;;5042227;28;20057;-79
2022/01/16 01:00:52;;;;;;;7.68;5.05;;;;;;;;;;5039032;28;20679;-75
2022/01/16 01:03:19;;;;;;;6.70;4.50;;;;;;;;;;5024721;28;20049;-79
2022/01/16 01:05:46;;;;;;;7.72;4.57;;;;;;;;;;5041582;28;20067;-76
2022/01/16 01:08:12;;;;;;;7.75;4.45;;;;;;;;;;5041245;28;21425;-71
2022/01/16 01:10:40;;;;;;;7.57;4.50;;;;;;;;;;5040589;28;20055;-80
2022/01/16 01:13:56;;;;;;;7.90;4.40;;;;;;;;;;5036976;28;20084;-80
2022/01/16 01:16:04;;;;;;;7.63;4.20;;;;;;;;;;5030852;28;20071;-78
2022/01/16 01:18:32;;;;;;;9.23;4.45;;;;;;;;;;5041935;28;20048;-76
2022/01/16 01:21:01;;;;;;;8.32;4.00;;;;;;;;;;5041742;28;20679;-77
2022/01/16 01:23:29;;;;;;;8.93;4.22;;;;;;;;;;5040717;28;20438;-78
2022/01/16 01:25:55;;;;;;;6.53;4.43;;;;;;;;;;5042695;28;20515;-79
2022/01/16 01:28:22;;;;;;;7.53;4.28;;;;;;;;;;5041999;28;20056;-75
2022/01/16 01:30:48;;;;;;;8.27;3.78;;;;;;;;;;5038633;28;20045;-79
2022/01/16 01:33:19;;;;;;;12.00;4.00;;;;;;;;;;5042915;28;20056;-80
2022/01/16 01:35:45;;;;;;;7.22;4.03;;;;;;;;;;5046952;28;20163;-82
2022/01/16 01:38:17;;;;;;;6.25;4.00;;;;;;;;;;5047930;28;20052;-69
2022/01/16 01:40:44;;;;;;;6.50;4.10;;;;;;;;;;5045370;28;20064;-72
2022/01/16 01:51:23;;;;;;;7.57;4.00;;;;;;;;;;5045529;28;20136;-74
2022/01/16 01:53:54;;;;;;;8.55;4.00;;;;;;;;;;5047642;28;20052;-77
2022/01/16 01:56:22;;;;;;;4.63;3.50;;;;;;;;;;5048557;28;20040;-76
2022/01/16 01:58:50;;;;;;;5.07;3.30;;;;;;;;;;5049354;28;20083;-80
2022/01/16 02:01:17;;;;;;;6.40;3.60;;;;;;;;;;5045301;28;20056;-72
2022/01/16 02:03:43;;;;;;;6.43;3.45;;;;;;;;;;5043357;28;20193;-66
2022/01/16 02:06:17;;;;;;;4.93;3.30;;;;;;;;;;5047171;28;20148;-79
2022/01/16 02:08:48;;;;;;;4.90;2.97;;;;;;;;;;5049065;28;20049;-79
2022/01/16 02:11:16;;;;;;;4.90;3.30;;;;;;;;;;5044973;28;20459;-75
2022/01/16 02:13:56;;;;;;;5.57;3.38;;;;;;;;;;5046923;28;20339;-69
2022/01/16 02:28:10;;;;;;;4.93;3.00;;;;;;;;;;5049389;28;20056;-78
2022/01/16 02:35:47;;;;;;;4.97;3.10;;;;;;;;;;5046918;28;20048;-79
2022/01/16 02:38:13;;;;;;;3.92;2.88;;;;;;;;;;5048471;28;20057;-71
2022/01/16 02:40:44;;;;;;;4.78;2.97;;;;;;;;;;5045130;28;20048;-70
2022/01/16 02:43:10;;;;;;;8.30;2.85;;;;;;;;;;5024979;28;20235;-76
2022/01/16 02:45:44;;;;;;;5.00;3.30;;;;;;;;;;5046767;28;20056;-75
2022/01/16 02:48:10;;;;;;;4.85;3.20;;;;;;;;;;5046215;28;20060;-71
2022/01/16 02:50:38;;;;;;;5.25;3.00;;;;;;;;;;5046027;28;20048;-76
2022/01/16 02:53:09;;;;;;;5.93;3.10;;;;;;;;;;5042368;28;20053;-81
2022/01/16 02:55:39;;;;;;;6.43;3.47;;;;;;;;;;5029674;28;20380;-78
2022/01/16 02:58:06;;;;;;;5.70;3.10;;;;;;;;;;5048304;28;20364;-69
2022/01/16 03:00:32;;;;;;;6.03;3.10;;;;;;;;;;5045167;28;20051;-78
2022/01/16 03:02:58;;;;;;;4.60;3.33;;;;;;;;;;5042920;28;20063;-74
2022/01/16 03:05:25;;;;;;;6.85;3.58;;;;;;;;;;5043682;28;20056;-78
2022/01/16 03:07:51;;;;;;;5.75;3.03;;;;;;;;;;5045286;28;20482;-72
2022/01/16 03:12:50;;;;;;;6.13;3.05;;;;;;;;;;5040334;28;20130;-72
2022/01/16 03:15:17;;;;;;;5.15;3.13;;;;;;;;;;5044187;28;20056;-73
2022/01/16 03:23:11;;;;;;;6.13;3.40;;;;;;;;;;5042256;28;20433;-67
2022/01/16 03:25:37;;;;;;;6.70;3.45;;;;;;;;;;5043144;28;20656;-72
2022/01/16 03:28:04;;;;;;;6.68;3.33;;;;;;;;;;5044243;28;20798;-69
2022/01/16 03:30:31;;;;;;;4.00;2.85;;;;;;;;;;5044035;28;20092;-81
2022/01/16 03:32:57;;;;;;;5.38;3.28;;;;;;;;;;5039069;28;20057;-70
2022/01/16 03:35:24;;;;;;;5.95;3.72;;;;;;;;;;5042180;28;20048;-77
2022/01/16 03:37:50;;;;;;;7.68;4.63;;;;;;;;;;5044187;28;20071;-66
2022/01/16 03:40:17;;;;;;;9.98;4.95;;;;;;;;;;5044621;28;20053;-69
2022/01/16 03:42:44;;;;;;;10.75;5.10;;;;;;;;;;5035793;28;20126;-72
2022/01/16 03:45:11;;;;;;;8.40;5.18;;;;;;;;;;5036896;28;20395;-74
2022/01/16 03:47:37;;;;;;;8.68;5.15;;;;;;;;;;5044187;28;20371;-76
2022/01/16 03:50:04;;;;;;;12.07;5.45;;;;;;;;;;5042276;28;20131;-75
2022/01/16 03:52:31;;;;;;;10.63;5.35;;;;;;;;;;5036807;28;20052;-80
2022/01/16 03:54:57;;;;;;;8.40;5.05;;;;;;;;;;5041285;28;20584;-67
2022/01/16 03:57:23;;;;;;;10.60;5.18;;;;;;;;;;5041239;28;21582;-75
2022/01/16 03:59:49;;;;;;;9.45;4.80;;;;;;;;;;5041003;28;20044;-76
2022/01/16 04:02:16;;;;;;;7.63;4.32;;;;;;;;;;5023766;28;20057;-73
2022/01/16 04:04:42;;;;;;;8.18;4.90;;;;;;;;;;5040857;28;20079;-68
2022/01/16 04:07:14;;;;;;;5.57;3.97;;;;;;;;;;5042938;28;20533;-77
2022/01/16 04:09:41;;;;;;;10.63;4.97;;;;;;;;;;5029619;28;20045;-71
2022/01/16 04:12:09;;;;;;;5.72;3.88;;;;;;;;;;5044209;28;20174;-78
2022/01/16 04:17:14;;;;;;;5.78;3.50;;;;;;;;;;5045225;28;20060;-74
2022/01/16 04:19:41;;;;;;;6.30;3.53;;;;;;;;;;5044409;28;20048;-73
2022/01/16 04:22:08;;;;;;;4.95;3.15;;;;;;;;;;5042133;28;20060;-68
2022/01/16 04:24:35;;;;;;;7.90;3.53;;;;;;;;;;5039972;28;20056;-75
2022/01/16 04:27:02;;;;;;;9.48;3.85;;;;;;;;;;5044246;28;20052;-72
2022/01/16 04:29:28;;;;;;;6.47;3.75;;;;;;;;;;5042697;28;20056;-77
2022/01/16 04:31:55;;;;;;;6.40;3.70;;;;;;;;;;5041575;28;20091;-75
2022/01/16 04:34:21;;;;;;;7.32;4.10;;;;;;;;;;5042235;28;20897;-78
2022/01/16 04:36:47;;;;;;;8.88;4.25;;;;;;;;;;5043534;28;20109;-69
2022/01/16 04:39:17;;;;;;;5.78;4.20;;;;;;;;;;5043138;28;20052;-69
2022/01/16 04:44:29;;;;;;;10.43;5.00;;;;;;;;;;5039975;28;20056;-79
2022/01/16 04:46:55;;;;;;;8.70;5.00;;;;;;;;;;5043015;28;20056;-78
2022/01/16 04:49:21;;;;;;;6.95;4.93;;;;;;;;;;5041710;28;20075;-79
2022/01/16 04:51:48;;;;;;;7.05;5.05;;;;;;;;;;5023057;28;20625;-69
2022/01/16 04:54:14;;;;;;;10.63;5.05;;;;;;;;;;5037460;28;20110;-66
2022/01/16 04:56:40;;;;;;;11.77;5.07;;;;;;;;;;5044141;28;20056;-70
2022/01/16 04:59:07;;;;;;;8.13;4.85;;;;;;;;;;5041213;28;20531;-76
2022/01/16 05:01:33;;;;;;;9.18;4.78;;;;;;;;;;5038395;28;20124;-70
2022/01/16 05:04:00;;;;;;;6.68;4.20;;;;;;;;;;5039074;28;20068;-78
2022/01/16 05:06:26;;;;;;;7.50;4.70;;;;;;;;;;5041981;28;20055;-75
2022/01/16 05:08:52;;;;;;;9.05;4.05;;;;;;;;;;5044228;28;20151;-78
2022/01/16 05:11:24;;;;;;;9.60;4.50;;;;;;;;;;5039542;28;20528;-80
2022/01/16 05:19:12;;;;;;;6.35;2.80;;;;;;;;;;5040611;28;20076;-81
2022/01/16 05:21:38;;;;;;;;;;;;;;;;;;5039244;28;20053;-69
2022/01/16 05:24:09;;;;;;;10.00;3.40;;;;;;;;;;5039646;28;19920;-70
2022/01/16 05:26:43;;;;;;;9.95;3.38;;;;;;;;;;5040115;28;20924;-78
2022/01/16 05:29:13;;;;;;;5.97;3.20;;;;;;;;;;5041417;28;20131;-74
2022/01/16 05:31:44;;;;;;;6.50;3.75;;;;;;;;;;5038903;28;21381;-71
2022/01/16 05:34:13;;;;;;;7.45;4.10;;;;;;;;;;5046974;28;20056;-74
2022/01/16 05:36:39;;;;;;;8.07;3.92;;;;;;;;;;5043143;28;20048;-73
2022/01/16 05:39:05;;;;;;;6.68;3.72;;;;;;;;;;5041840;28;20064;-72
2022/01/16 05:41:32;;;;;;;6.93;4.22;;;;;;;;;;5038843;28;20067;-74
2022/01/16 05:43:58;;;;;;;7.13;4.53;;;;;;;;;;5040994;28;20056;-83
2022/01/16 05:46:24;;;;;;;6.57;3.88;;;;;;;;;;5025442;28;20406;-72
2022/01/16 05:48:51;;;;;;;6.43;3.83;;;;;;;;;;5043900;28;20083;-78
2022/01/16 05:51:17;;;;;;;6.70;3.95;;;;;;;;;;5040100;28;20140;-75
2022/01/16 05:53:46;;;;;;;5.57;3.78;;;;;;;;;;5039233;28;20044;-68
2022/01/16 05:56:13;;;;;;;6.75;3.72;;;;;;;;;;5042691;28;20067;-79
2022/01/16 05:58:40;;;;;;;7.03;4.07;;;;;;;;;;5040454;28;20049;-73
2022/01/16 06:01:06;;;;;;;6.75;3.55;;;;;;;;;;5039038;28;20167;-67
2022/01/16 06:03:32;;;;;;;7.53;4.18;;;;;;;;;;5022829;28;20083;-74
2022/01/16 06:05:58;;;;;;;6.60;3.80;;;;;;;;;;5041609;28;20174;-73
2022/01/16 06:08:25;;;;;;;9.93;3.60;;;;;;;;;;5043192;28;20143;-81
2022/01/16 06:10:51;;;;;;;7.90;3.80;;;;;;;;;;5043582;28;20522;-78
2022/01/16 06:13:17;;;;;;;6.93;4.10;;;;;;;;;;5040073;28;20661;-74
2022/01/16 06:15:43;;;;;;;7.30;3.88;;;;;;;;;;5041582;28;20057;-74
2022/01/16 06:18:09;;;;;;;11.05;4.13;;;;;;;;;;5026142;28;20056;-76
2022/01/16 06:20:35;;;;;;;6.72;3.42;;;;;;;;;;5043695;28;20057;-73
2022/01/16 06:23:01;;;;;;;6.50;3.65;;;;;;;;;;5041898;28;20045;-73
2022/01/16 06:25:28;;;;;;;7.03;3.88;;;;;;;;;;5045357;28;20064;-77
2022/01/16 06:27:54;;;;;;;6.15;3.75;;;;;;;;;;5027479;28;20529;-74
2022/01/16 06:30:21;;;;;;;11.00;4.13;;;;;;;;;;5044147;28;20429;-72
2022/01/16 06:32:47;;;;;;;6.72;3.42;;;;;;;;;;5042573;28;20052;-75
2022/01/16 06:35:14;;;;;;;7.53;3.97;;;;;;;;;;5046335;28;20274;-72
2022/01/16 06:37:41;;;;;;;8.35;3.95;;;;;;;;;;5045596;28;20058;-72
2022/01/16 06:40:08;;;;;;;8.13;4.10;;;;;;;;;;5045030;28;20248;-75
2022/01/16 06:42:35;;;;;;;5.85;3.50;;;;;;;;;;5025638;28;20142;-76
2022/01/16 06:45:01;;;;;;;7.53;3.47;;;;;;;;;;5042722;28;20097;-80
2022/01/16 06:47:27;;;;;;;5.75;3.33;;;;;;;;;;5042461;28;20394;-72
2022/01/16 06:49:53;;;;;;;4.43;3.05;;;;;;;;;;5045473;28;20064;-81
2022/01/16 06:52:19;;;;;;;4.32;2.88;;;;;;;;;;5042394;28;20052;-69
2022/01/16 06:54:45;;;;;;;7.65;3.22;;;;;;;;;;5040488;28;20509;-81
2022/01/16 06:57:12;;;;;;;6.15;3.47;;;;;;;;;;5043846;28;20107;-79
2022/01/16 06:59:38;;;;;;;5.50;3.25;;;;;;;;;;5043495;28;20048;-78
2022/01/16 07:02:06;;;;;;;6.05;3.30;;;;;;;;;;5039484;28;20061;-78
2022/01/16 07:04:32;;;;;;;7.50;2.97;;;;;;;;;;5040467;28;20098;-76
2022/01/16 07:06:58;;;;;;;7.07;3.47;;;;;;;;;;5039859;28;20053;-81
2022/01/16 07:09:24;;;;;;;4.45;3.00;;;;;;;;;;5044585;28;20045;-68
2022/01/16 07:11:51;;;;;;;4.90;3.00;;;;;;;;;;5040508;28;21648;-74
2022/01/16 07:14:17;;;;;;;5.85;3.40;;;;;;;;;;5041487;28;20175;-83
2022/01/16 07:16:43;;;;;;;4.18;3.03;;;;;;;;;;5046334;28;20053;-75
2022/01/16 07:19:10;;;;;;;5.70;3.38;;;;;;;;;;5044796;28;20493;-69
2022/01/16 07:21:37;;;;;;;5.82;3.55;;;;;;;;;;5040501;28;20564;-72
2022/01/16 07:24:03;;;;;;;13.20;3.40;;;;;;;;;;5041804;28;20048;-74
2022/01/16 07:26:29;;;;;;;6.38;3.17;;;;;;;;;;5042966;28;20076;-74
2022/01/16 07:28:55;;;;;;;5.68;3.38;;;;;;;;;;5044572;28;20190;-81
2022/01/16 07:31:22;;;;;;;8.45;3.80;;;;;;;;;;5040322;28;20135;-75
2022/01/16 07:33:50;;;;;;;9.80;3.55;;;;;;;;;;5040254;28;20056;-79
2022/01/16 07:36:16;;;;;;;6.07;3.45;;;;;;;;;;5039714;28;20413;-76
2022/01/16 07:38:42;;;;;;;10.85;3.90;;;;;;;;;;5037938;28;20052;-78
2022/01/16 07:41:08;;;;;;;4.95;3.30;;;;;;;;;;5040232;28;20056;-68
2022/01/16 07:43:34;;;;;;;4.95;3.17;;;;;;;;;;5041123;28;20167;-75
2022/01/16 07:46:01;;;;;;;7.97;4.00;;;;;;;;;;5042800;28;20068;-69
2022/01/16 07:48:27;;;;;;;6.85;3.70;;;;;;;;;;5045028;28;20864;-76
2022/01/16 07:50:54;;;;;;;5.93;3.63;;;;;;;;;;5039555;28;20742;-79
2022/01/16 07:53:20;;;;;;;7.47;4.20;;;;;;;;;;5042666;28;20056;-75
2022/01/16 07:55:46;;;;;;;6.68;4.20;;;;;;;;;;5043027;28;20524;-77
2022/01/16 07:58:12;;;;;;;6.38;4.10;;;;;;;;;;5042456;28;20072;-76
2022/01/16 08:00:39;;;;;;;12.80;4.35;;;;;;;;;;5041764;28;20441;-76
2022/01/16 08:03:05;;;;;;;7.13;4.00;;;;;;;;;;5043011;28;20048;-79
2022/01/16 08:05:34;;;;;;;10.45;4.53;;;;;;;;;;5044492;28;20665;-71
2022/01/16 08:08:00;;;;;;;6.72;4.38;;;;;;;;;;5044496;28;20060;-67
2022/01/16 08:10:26;;;;;;;7.68;4.22;;;;;;;;;;5046109;28;20045;-79
2022/01/16 08:12:53;;;;;;;7.90;4.53;;;;;;;;;;5042869;28;20838;-83
2022/01/16 08:15:19;;;;;;;8.68;4.10;;;;;;;;;;5045210;28;20049;-84
2022/01/16 08:17:45;;;;;;;6.70;4.38;;;;;;;;;;5047511;28;20134;-74
2022/01/16 08:20:12;;;;;;;7.90;4.15;;;;;;;;;;5047343;28;20048;-76
2022/01/16 08:22:39;;;;;;;8.15;4.45;;;;;;;;;;5041312;28;20048;-80
2022/01/16 08:25:06;;;;;;;6.82;4.10;;;;;;;;;;5046409;28;20113;-75
2022/01/16 08:27:33;;;;;;;8.07;4.00;;;;;;;;;;5046499;28;20098;-79
2022/01/16 08:29:59;;;;;;;6.93;4.20;;;;;;;;;;5046686;28;20057;-76
2022/01/16 08:32:25;;;;;;;5.55;3.60;;;;;;;;;;5037998;28;20522;-81
2022/01/16 08:34:51;;;;;;;5.65;3.33;;;;;;;;;;5040400;28;20124;-80
2022/01/16 08:37:17;;;;;;;6.10;3.35;;;;;;;;;;5045622;28;20417;-77
2022/01/16 08:39:43;;;;;;;5.90;3.40;;;;;;;;;;5026966;28;20173;-76
2022/01/16 08:42:09;;;;;;;7.68;3.47;;;;;;;;;;5040551;28;20056;-72
2022/01/16 08:44:38;;;;;;;8.52;4.25;;;;;;;;;;5039643;28;20076;-77
2022/01/16 08:47:06;;;;;;;9.98;3.90;;;;;;;;;;5041416;28;20095;-78
2022/01/16 08:49:33;;;;;;;7.97;4.28;;;;;;;;;;5029912;28;20406;-76
2022/01/16 08:52:00;;;;;;;11.52;4.57;;;;;;;;;;5045181;28;20097;-73
2022/01/16 08:54:26;;;;;;;6.78;4.43;;;;;;;;;;5045091;28;20098;-84
2022/01/16 08:56:53;;;;;;;7.50;4.65;;;;;;;;;;5047864;28;20041;-77
2022/01/16 08:59:19;;;;;;;6.90;4.10;;;;;;;;;;5043819;28;20466;-79
2022/01/16 09:01:46;;;;;;;8.52;4.45;;;;;;;;;;5047200;28;20148;-85
2022/01/16 09:04:12;;;;;;;12.45;4.50;;;;;;;;;;5027969;28;20044;-73
2022/01/16 09:06:40;;;;;;;9.27;5.03;;;;;;;;;;5045914;28;20369;-83
2022/01/16 09:09:06;;;;;;;8.05;4.30;;;;;;;;;;5047350;28;20052;-79
2022/01/16 09:11:33;;;;;;;7.20;4.55;;;;;;;;;;5044010;28;20063;-85
2022/01/16 09:13:59;;;;;;;9.15;4.90;;;;;;;;;;5042370;28;20478;-78
2022/01/16 09:16:25;;;;;;;10.10;4.25;;;;;;;;;;5048191;28;20098;-73
2022/01/16 09:18:51;;;;;;;8.38;4.80;;;;;;;;;;5046843;28;20427;-80
2022/01/16 09:21:18;;;;;;;7.15;4.75;;;;;;;;;;5045150;28;21149;-80
2022/01/16 09:23:49;;;;;;;8.93;4.47;;;;;;;;;;5044219;28;20045;-80
2022/01/16 09:26:16;;;;;;;9.00;4.47;;;;;;;;;;5048426;28;20787;-80
2022/01/16 09:28:43;;;;;;;7.78;4.22;;;;;;;;;;5049536;28;20052;-74
2022/01/16 09:31:10;;;;;;;8.80;4.20;;;;;;;;;;5045315;28;20053;-77
2022/01/16 09:33:36;;;;;;;6.82;4.20;;;;;;;;;;5040282;28;20502;-79
2022/01/16 09:36:04;;;;;;;10.52;5.25;;;;;;;;;;5046356;28;20131;-82
2022/01/16 09:38:30;;;;;;;7.93;4.85;;;;;;;;;;5047389;28;20048;-72
2022/01/16 09:40:57;;;;;;;7.88;4.72;;;;;;;;;;5030208;28;20091;-75
2022/01/16 09:43:23;;;;;;;7.25;5.20;;;;;;;;;;5042680;28;20190;-78
2022/01/16 09:45:52;;;;;;;9.95;4.90;;;;;;;;;;5028689;28;20056;-73
2022/01/16 09:48:18;;;;;;;7.82;4.80;;;;;;;;;;5046880;28;20770;-75
2022/01/16 09:50:44;;;;;;;7.63;4.70;;;;;;;;;;5046563;28;20052;-75
2022/01/16 09:53:12;;;;;;;7.25;4.13;;;;;;;;;;5044157;28;20064;-77
2022/01/16 09:55:40;;;;;;;8.27;4.60;;;;;;;;;;5050936;28;20055;-77
2022/01/16 09:58:06;;;;;;;7.38;4.40;;;;;;;;;;5055012;28;20389;-81
2022/01/16 10:00:33;;;;;;;13.95;4.75;;;;;;;;;;5053507;28;20895;-77
2022/01/16 10:02:59;;;;;;;6.25;4.68;;;;;;;;;;5048963;28;20488;-81
2022/01/16 10:05:31;;;;;;;8.35;5.13;;;;;;;;;;5050543;28;20828;-78
2022/01/16 10:07:59;;;;;;;8.48;4.65;;;;;;;;;;5032177;28;20052;-75
2022/01/16 10:10:28;;;;;;;11.02;4.68;;;;;;;;;;5051738;28;20044;-85
2022/01/16 10:13:04;;;;;;;8.02;4.43;;;;;;;;;;5047810;28;20698;-76
2022/01/16 10:15:31;;;;;;;6.80;4.10;;;;;;;;;;5052831;28;20079;-76
2022/01/16 10:18:00;;;;;;;7.22;4.55;;;;;;;;;;5054120;28;20421;-80
2022/01/16 10:20:28;;;;;;;9.13;4.57;;;;;;;;;;5049943;28;20057;-79
2022/01/16 10:22:58;;;;;;;7.15;4.45;;;;;;;;;;5046825;28;20369;-86
2022/01/16 10:25:41;;;;;;;8.02;4.53;;;;;;;;;;5050828;28;20379;-79
2022/01/16 10:28:22;;;;;;;9.15;4.57;;;;;;;;;;5049510;28;20067;-85
2022/01/16 10:30:50;;;;;;;8.00;4.95;;;;;;;;;;5046797;28;20136;-81
2022/01/16 10:33:26;;;;;;;7.38;4.57;;;;;;;;;;5028596;28;20472;-84
2022/01/16 10:35:55;;;;;;;9.70;4.78;;;;;;;;;;5044663;28;20049;-81
2022/01/16 10:38:28;;;;;;;7.85;4.53;;;;;;;;;;5043981;28;20049;-82
2022/01/16 10:40:57;;;;;;;10.32;5.95;;;;;;;;;;5043127;28;20048;-78
2022/01/16 10:43:39;;;;;;;7.25;4.30;;;;;;;;;;5044170;28;20136;-79
2022/01/16 10:46:07;;;;;;;8.75;4.53;;;;;;;;;;5030570;28;20059;-78
2022/01/16 10:48:34;;;;;;;9.07;4.90;;;;;;;;;;5046423;28;20663;-71
2022/01/16 10:51:01;;;;;;;9.32;4.43;;;;;;;;;;5042174;28;20903;-76
2022/01/16 10:53:31;;;;;;;8.95;4.70;;;;;;;;;;5041844;28;20928;-75
2022/01/16 10:56:02;;;;;;;12.45;5.13;;;;;;;;;;5048458;28;20155;-74
2022/01/16 10:58:38;;;;;;;7.10;4.30;;;;;;;;;;5044650;28;20453;-76
2022/01/16 11:01:16;;;;;;;8.15;4.72;;;;;;;;;;5043402;28;20344;-73
2022/01/16 11:03:45;;;;;;;6.68;4.60;;;;;;;;;;5044996;28;20715;-76
2022/01/16 11:06:13;;;;;;;25.10;5.22;;;;;;;;;;5040561;28;20059;-73
2022/01/16 11:08:39;;;;;;;8.27;4.63;;;;;;;;;;5043501;28;21564;-77
2022/01/16 11:11:08;;;;;;;9.82;4.47;;;;;;;;;;5040662;28;20061;-79
2022/01/16 11:13:35;;;;;;;6.43;3.90;;;;;;;;;;5036720;28;20806;-72
2022/01/16 11:16:05;;;;;;;7.70;3.97;;;;;;;;;;5043145;28;20079;-76
2022/01/16 11:18:40;;;;;;;12.43;4.18;;;;;;;;;;5041620;28;20519;-78
2022/01/16 11:21:16;;;;;;;10.65;5.65;;;;;;;;;;5042071;28;20412;-79
2022/01/16 11:23:59;;;;;;;10.27;4.88;;;;;;;;;;5041816;28;20568;-79
2022/01/16 11:26:27;;;;;;;11.38;4.47;;;;;;;;;;5046820;28;20439;-80
2022/01/16 11:28:55;;;;;;;10.15;4.78;;;;;;;;;;5042847;28;20482;-84
2022/01/16 11:31:22;;;;;;;8.02;4.20;;;;;;;;;;5040933;28;20091;-80
2022/01/16 11:33:48;;;;;;;8.63;4.70;;;;;;;;;;5040360;28;20053;-79
2022/01/16 11:36:25;;;;;;;7.95;4.68;;;;;;;;;;5041861;28;20082;-76
2022/01/16 11:38:57;;;;;;;11.00;4.60;;;;;;;;;;5046513;28;20275;-82
2022/01/16 11:41:39;;;;;;;7.10;4.63;;;;;;;;;;5042597;28;20152;-82
2022/01/16 11:44:07;;;;;;;5.63;3.58;;;;;;;;;;5026574;28;20935;-79
2022/01/16 11:46:39;;;;;;;5.88;3.22;;;;;;;;;;5044689;28;20151;-72
2022/01/16 11:49:07;;;;;;;4.93;3.20;;;;;;;;;;5027798;28;20065;-76
2022/01/16 11:51:39;;;;;;;5.80;3.35;;;;;;;;;;5043475;28;20185;-79
2022/01/16 11:54:10;;;;;;;7.72;3.17;;;;;;;;;;5043475;28;20102;-78
2022/01/16 11:59:15;;;;;;;6.43;3.15;;;;;;;;;;5041542;28;20052;-79
2022/01/16 12:01:58;;;;;;;7.15;3.20;;;;;;;;;;5040672;28;20053;-77
2022/01/16 12:04:30;;;;;;;7.93;3.85;;;;;;;;;;5024260;28;20880;-77
2022/01/16 12:07:12;;;;;;;5.78;2.58;;;;;;;;;;5040324;28;20044;-77
2022/01/16 12:09:59;;;;;;;6.30;2.80;;;;;;;;;;5046152;28;20164;-74
2022/01/16 12:12:27;;;;;;;7.95;3.35;;;;;;;;;;5037583;28;20171;-83
2022/01/16 12:15:00;;;;;;;7.25;3.47;;;;;;;;;;5044218;28;20041;-79
2022/01/16 12:17:38;;;;;;;6.70;3.58;;;;;;;;;;5040579;28;20114;-80
2022/01/16 12:20:14;;;;;;;5.32;3.28;;;;;;;;;;5045063;28;20153;-75
2022/01/16 12:22:41;;;;;;;11.60;3.53;;;;;;;;;;5043029;28;20061;-80
2022/01/16 12:25:16;;;;;;;6.38;3.47;;;;;;;;;;5045848;28;20114;-78
2022/01/16 12:27:49;;;;;;;9.43;4.40;;;;;;;;;;5042758;28;20048;-82
2022/01/16 12:30:17;;;;;;;9.40;5.45;;;;;;;;;;5047002;28;20044;-77
2022/01/16 12:32:51;;;;;;;11.77;6.68;;;;;;;;;;5024436;28;20060;-78
2022/01/16 12:35:46;;;;;;;14.98;7.15;;;;;;;;;;5044781;28;20098;-80
2022/01/16 12:38:17;;;;;;;8.02;5.43;;;;;;;;;;4996876;28;20044;-67
2022/01/16 12:41:03;;;;;;;10.13;5.00;;;;;;;;;;5039425;28;20755;-78
2022/01/16 12:43:32;;;;;;;13.68;5.88;;;;;;;;;;5034784;28;20569;-77
2022/01/16 12:46:03;;;;;;;9.93;5.20;;;;;;;;;;5034682;28;20056;-70
2022/01/16 12:48:30;;;;;;;5.43;3.65;;;;;;;;;;5042831;28;20637;-80
2022/01/16 12:51:01;;;;;;;7.68;4.22;;;;;;;;;;5039418;28;20129;-78
2022/01/16 12:53:36;;;;;;;7.53;4.00;;;;;;;;;;5041206;28;20052;-76
2022/01/16 12:56:28;;;;;;;8.27;4.43;;;;;;;;;;5043197;28;20052;-69
2022/01/16 12:59:09;;;;;;;9.80;4.40;;;;;;;;;;5025321;28;20139;-78
2022/01/16 13:01:37;;;;;;;9.02;4.22;;;;;;;;;;5039860;28;20063;-76
2022/01/16 13:04:04;;;;;;;11.27;4.75;;;;;;;;;;5039201;28;20045;-74
2022/01/16 13:06:34;;;;;;;9.45;5.03;;;;;;;;;;5023782;28;20049;-78
2022/01/16 13:09:03;;;;;;;8.43;4.75;;;;;;;;;;5042850;28;20536;-77
2022/01/16 13:11:36;;;;;;;11.20;5.00;;;;;;;;;;5038357;28;20061;-76
2022/01/16 13:14:05;;;;;;;9.23;5.10;;;;;;;;;;5036508;28;20060;-78
2022/01/16 13:16:37;;;;;;;11.30;4.80;;;;;;;;;;5042019;28;20674;-78
2022/01/16 13:19:07;;;;;;;8.60;5.10;;;;;;;;;;5043105;28;20052;-71
2022/01/16 13:24:37;;;;;;;10.50;4.25;;;;;;;;;;5040762;28;20084;-74
2022/01/16 13:27:09;;;;;;;8.30;5.13;;;;;;;;;;5042080;28;20063;-75
2022/01/16 13:29:39;;;;;;;9.25;4.50;;;;;;;;;;5029390;28;20131;-71
2022/01/16 13:32:07;;;;;;;8.02;4.30;;;;;;;;;;5046535;28;20095;-75
2022/01/16 13:34:49;;;;;;;8.68;3.95;;;;;;;;;;5042389;28;20045;-72
2022/01/16 13:37:19;;;;;;;11.38;5.70;;;;;;;;;;5050510;28;20051;-72
2022/01/16 13:39:52;;;;;;;6.32;3.45;;;;;;;;;;5050916;28;20045;-75
2022/01/16 13:42:50;;;;;;;12.40;5.50;;;;;;;;;;5048329;28;20076;-78
2022/01/16 13:45:18;;;;;;;6.15;3.50;;;;;;;;;;5031345;28;20103;-73
2022/01/16 13:48:12;;;;;;;6.85;3.60;;;;;;;;;;5048739;28;20061;-74
2022/01/16 13:50:52;;;;;;;7.63;4.22;;;;;;;;;;5033850;28;20198;-80
2022/01/16 13:53:24;;;;;;;9.60;4.68;;;;;;;;;;5048040;28;20060;-79
2022/01/16 13:56:03;;;;;;;6.88;4.50;;;;;;;;;;5031320;28;20068;-77
2022/01/16 13:58:41;;;;;;;9.30;5.32;;;;;;;;;;5046775;28;20598;-74
2022/01/16 14:01:20;;;;;;;10.52;5.30;;;;;;;;;;5044485;28;20116;-80
2022/01/16 14:03:54;;;;;;;9.13;4.93;;;;;;;;;;5045528;28;20110;-76
2022/01/16 14:06:22;;;;;;;10.75;5.50;;;;;;;;;;5049376;28;20589;-79
2022/01/16 14:08:52;;;;;;;11.13;5.93;;;;;;;;;;5047166;28;20052;-76
2022/01/16 14:11:23;;;;;;;10.95;5.20;;;;;;;;;;5049785;28;20052;-75
2022/01/16 14:13:55;;;;;;;8.07;5.20;;;;;;;;;;5046022;28;20139;-77
2022/01/16 14:17:05;;;;;;;12.00;4.88;;;;;;;;;;5048338;28;20570;-75
2022/01/16 14:22:14;;;;;;;9.75;4.95;;;;;;;;;;5045694;28;20056;-73
2022/01/16 14:24:45;;;;;;;11.95;5.43;;;;;;;;;;5044418;28;20125;-75
2022/01/16 14:27:16;;;;;;;8.88;4.18;;;;;;;;;;5048498;28;20056;-75
2022/01/16 14:29:44;;;;;;;6.50;3.72;;;;;;;;;;5050441;28;20159;-75
2022/01/16 14:32:12;;;;;;;7.93;3.50;;;;;;;;;;5045641;28;20285;-74
2022/01/16 14:34:40;;;;;;;6.68;3.25;;;;;;;;;;5047232;28;20065;-74
2022/01/16 14:37:07;;;;;;;7.28;3.72;;;;;;;;;;5056965;28;21095;-74
2022/01/16 14:39:35;;;;;;;5.03;3.00;;;;;;;;;;5048170;28;20095;-74
2022/01/16 14:42:03;;;;;;;5.28;3.03;;;;;;;;;;5046246;28;20117;-73
2022/01/16 14:44:32;;;;;;;6.75;3.20;;;;;;;;;;5031921;28;20056;-77
2022/01/16 14:47:00;;;;;;;6.68;2.80;;;;;;;;;;5049136;28;20071;-77
2022/01/16 14:49:27;;;;;;;6.47;3.10;;;;;;;;;;5047481;28;20216;-77
2022/01/16 14:51:54;;;;;;;3.90;2.50;;;;;;;;;;5046654;28;20098;-73
2022/01/16 14:54:21;;;;;;;6.30;2.72;;;;;;;;;;5049001;28;21020;-78
2022/01/16 14:56:47;;;;;;;7.57;3.53;;;;;;;;;;5032668;28;20261;-78
2022/01/16 14:59:14;;;;;;;5.70;3.17;;;;;;;;;;5050568;28;20076;-79
2022/01/16 15:01:43;;;;;;;8.40;3.50;;;;;;;;;;5028893;28;20053;-75
2022/01/16 15:04:11;;;;;;;6.47;3.40;;;;;;;;;;5027622;28;20179;-76
2022/01/16 15:06:39;;;;;;;4.32;3.25;;;;;;;;;;5049689;28;20675;-76
2022/01/16 15:09:06;;;;;;;6.38;3.17;;;;;;;;;;5029529;28;20052;-78
2022/01/16 15:11:33;;;;;;;6.25;3.28;;;;;;;;;;5044463;28;20052;-75
2022/01/16 15:14:00;;;;;;;5.72;3.33;;;;;;;;;;5045596;28;20060;-81
2022/01/16 15:16:28;;;;;;;6.30;3.13;;;;;;;;;;5050139;28;20208;-75
2022/01/16 15:18:58;;;;;;;4.05;2.80;;;;;;;;;;5049836;28;20178;-76
2022/01/16 15:21:50;;;;;;;4.20;2.80;;;;;;;;;;5045834;28;20068;-76
2022/01/16 15:24:12;;;;;;;5.97;2.50;;;;;;;;;;5044828;28;20076;-76
2022/01/16 15:26:38;;;;;;;4.00;2.38;;;;;;;;;;5032554;28;20143;-74
2022/01/16 15:29:05;;;;;;;5.32;2.42;;;;;;;;;;5047739;28;20575;-75
2022/01/16 15:31:32;;;;;;;6.22;3.13;;;;;;;;;;5046091;28;20155;-82
2022/01/16 15:34:00;;;;;;;4.47;2.65;;;;;;;;;;5046671;28;20075;-74
2022/01/16 15:36:27;;;;;;;4.63;2.60;;;;;;;;;;5047758;28;20760;-73
2022/01/16 15:38:53;;;;;;;6.50;2.67;;;;;;;;;;5049524;28;20045;-77
2022/01/16 15:41:20;;;;;;;5.78;2.85;;;;;;;;;;5045156;28;20052;-80
2022/01/16 15:43:46;;;;;;;5.53;2.78;;;;;;;;;;5030007;28;20052;-77
2022/01/16 15:46:12;;;;;;;3.88;2.38;;;;;;;;;;5048554;28;20213;-77